Time;durP1;ratioP1;P1;durP2;ratioP2;P2;SDS_P1;SDS_P2;PMS_P1;PMS_P2;Temp;Humidity;BMP_temperature;BMP_pressure;BME280_temperature;BME280_humidity;BME280_pressure;Samples;Min_cycle;Max_cycle;Signal;HPM_P1;HPM_P2
2023/01/26 00:02:18;;;;;;;;;;;1.50;99.90;;;;;;5094262;28;20007;-70
2023/01/26 00:04:43;;;;;;;;;;;1.50;99.90;;;;;;5093301;28;20360;-70
2023/01/26 00:07:09;;;;;;;;;;;1.50;99.90;;;;;;5104591;28;19912;-70
2023/01/26 00:09:34;;;;;;;;;;;1.50;99.90;;;;;;5113375;28;19920;-70
2023/01/26 00:12:00;;;;;;;;;;;1.50;99.90;;;;;;5114612;28;19923;-70
2023/01/26 00:14:25;;;;;;;;;;;1.40;99.90;;;;;;5093604;28;19912;-70
2023/01/26 00:16:52;;;;;;;;;;;1.40;99.90;;;;;;5088704;28;19923;-70
2023/01/26 00:19:18;;;;;;;;;;;1.40;99.90;;;;;;5113159;28;19950;-70
2023/01/26 00:21:43;;;;;;;;;;;1.40;99.90;;;;;;5113296;28;19915;-70
2023/01/26 00:24:09;;;;;;;;;;;1.40;99.90;;;;;;5108552;28;20488;-70
2023/01/26 00:26:34;;;;;;;;;;;1.40;99.90;;;;;;5095564;28;19942;-70
2023/01/26 00:29:00;;;;;;;;;;;1.40;99.90;;;;;;5091480;28;19920;-70
2023/01/26 00:31:26;;;;;;;;;;;1.40;99.90;;;;;;5098250;28;19970;-70
2023/01/26 00:33:55;;;;;;;;;;;1.40;99.90;;;;;;5107965;28;19955;-70
2023/01/26 00:36:21;;;;;;;;;;;1.40;99.90;;;;;;5093425;28;19912;-70
2023/01/26 00:38:47;;;;;;;;;;;1.30;99.90;;;;;;5107571;28;19919;-70
2023/01/26 00:42:05;;;;;;;;;;;1.40;99.90;;;;;;5100244;28;19916;-70
2023/01/26 00:43:58;;;;;;;;;;;1.40;99.90;;;;;;5113891;28;19915;-71
2023/01/26 00:46:24;;;;;;;;;;;1.30;99.90;;;;;;5113544;28;20056;-70
2023/01/26 00:48:49;;;;;;;;;;;1.30;99.90;;;;;;5107467;28;19968;-70
2023/01/26 00:51:15;;;;;;;;;;;1.40;99.90;;;;;;5112194;28;19927;-70
2023/01/26 00:53:41;;;;;;;;;;;1.40;99.90;;;;;;5098545;28;20438;-70
2023/01/26 00:56:06;;;;;;;;;;;1.40;99.90;;;;;;5093843;28;20003;-70
2023/01/26 00:58:32;;;;;;;;;;;1.40;99.90;;;;;;5094886;28;20241;-70
2023/01/26 01:00:57;;;;;;;;;;;1.40;99.90;;;;;;5114123;28;19916;-70
2023/01/26 01:03:23;;;;;;;;;;;1.40;99.90;;;;;;5102428;28;20279;-70
2023/01/26 01:05:49;;;;;;;;;;;1.40;99.90;;;;;;5092599;28;19912;-70
2023/01/26 01:08:14;;;;;;;;;;;1.40;99.90;;;;;;5099485;28;19912;-70
2023/01/26 01:10:40;;;;;;;;;;;1.40;99.90;;;;;;5111669;28;20015;-70
2023/01/26 01:13:05;;;;;;;;;;;1.40;99.90;;;;;;5093791;28;19919;-70
2023/01/26 01:15:31;;;;;;;;;;;1.30;99.90;;;;;;5093356;28;19995;-70
2023/01/26 01:17:56;;;;;;;;;;;1.30;99.90;;;;;;5108677;28;19916;-70
2023/01/26 01:20:22;;;;;;;;;;;1.30;99.90;;;;;;5100727;28;19958;-70
2023/01/26 01:22:49;;;;;;;;;;;1.30;99.90;;;;;;5095034;28;19942;-70
2023/01/26 01:25:15;;;;;;;;;;;1.30;99.90;;;;;;5097791;28;19918;-70
2023/01/26 01:27:40;;;;;;;;;;;1.30;99.90;;;;;;5105168;28;19912;-70
2023/01/26 01:30:06;;;;;;;;;;;1.30;99.90;;;;;;5093578;28;19916;-70
2023/01/26 01:32:33;;;;;;;;;;;1.20;99.90;;;;;;5109476;28;19965;-70
2023/01/26 01:34:59;;;;;;;;;;;1.20;99.90;;;;;;5093743;28;19916;-70
2023/01/26 01:37:24;;;;;;;;;;;1.30;99.90;;;;;;5093046;28;19912;-70
2023/01/26 01:39:50;;;;;;;;;;;1.20;99.90;;;;;;5093462;28;19916;-70
2023/01/26 01:42:15;;;;;;;;;;;1.20;99.90;;;;;;5092067;28;19948;-70
2023/01/26 01:44:42;;;;;;;;;;;1.30;99.90;;;;;;5101863;28;19912;-70
2023/01/26 01:47:22;;;;;;;;;;;1.20;99.90;;;;;;5110399;28;19995;-70
2023/01/26 01:49:49;;;;;;;;;;;1.20;99.90;;;;;;5091827;28;20310;-70
2023/01/26 01:52:26;;;;;;;;;;;1.10;99.90;;;;;;5091925;28;19922;-70
2023/01/26 01:55:00;;;;;;;;;;;1.10;99.90;;;;;;5110813;28;19916;-70
2023/01/26 01:57:29;;;;;;;;;;;1.10;99.90;;;;;;5110066;28;19912;-70
2023/01/26 02:00:06;;;;;;;;;;;1.10;99.90;;;;;;5110499;28;19912;-70
2023/01/26 02:02:32;;;;;;;;;;;1.10;99.90;;;;;;5108532;28;19964;-70
2023/01/26 02:05:02;;;;;;;;;;;1.10;99.90;;;;;;5111252;28;20002;-70
2023/01/26 02:07:29;;;;;;;;;;;1.10;99.90;;;;;;5096959;28;19952;-70
2023/01/26 02:12:39;;;;;;;;;;;1.10;99.90;;;;;;5096612;28;19919;-70
2023/01/26 02:15:05;;;;;;;;;;;1.10;99.90;;;;;;5096259;28;19916;-70
2023/01/26 02:17:31;;;;;;;;;;;1.20;99.90;;;;;;5093216;28;19923;-70
2023/01/26 02:20:06;;;;;;;;;;;1.10;99.90;;;;;;5095721;28;19912;-70
2023/01/26 02:22:35;;;;;;;;;;;1.00;99.90;;;;;;5096702;28;19912;-70
2023/01/26 02:25:04;;;;;;;;;;;1.00;99.90;;;;;;5095585;28;19912;-70
2023/01/26 02:27:30;;;;;;;;;;;1.00;99.90;;;;;;5097273;28;21631;-69
2023/01/26 02:29:57;;;;;;;;;;;1.00;99.90;;;;;;5116407;28;19920;-70
2023/01/26 02:32:23;;;;;;;;;;;1.00;99.90;;;;;;5116854;28;19922;-70
2023/01/26 02:34:54;;;;;;;;;;;1.00;99.90;;;;;;5117504;28;20003;-70
2023/01/26 02:37:20;;;;;;;;;;;1.00;99.90;;;;;;5115252;28;20383;-70
2023/01/26 02:39:54;;;;;;;;;;;0.90;99.90;;;;;;5115859;28;19996;-70
2023/01/26 02:42:38;;;;;;;;;;;0.90;99.90;;;;;;5115291;28;19924;-70
2023/01/26 02:45:04;;;;;;;;;;;0.90;99.90;;;;;;5115059;28;19911;-69
2023/01/26 02:47:30;;;;;;;;;;;0.90;99.90;;;;;;5111609;28;19920;-69
2023/01/26 02:49:57;;;;;;;;;;;0.80;99.90;;;;;;5093077;28;19913;-70
2023/01/26 02:52:24;;;;;;;;;;;0.90;99.90;;;;;;5096167;28;20363;-70
2023/01/26 02:57:35;;;;;;;;;;;0.90;99.90;;;;;;5096109;28;20381;-69
2023/01/26 03:00:01;;;;;;;;;;;0.90;99.90;;;;;;5099271;28;20007;-69
2023/01/26 03:02:26;;;;;;;;;;;0.90;99.90;;;;;;5095800;28;19912;-70
2023/01/26 03:04:52;;;;;;;;;;;0.90;99.90;;;;;;5096780;28;19969;-70
2023/01/26 03:07:18;;;;;;;;;;;0.90;99.90;;;;;;5112714;28;19912;-70
2023/01/26 03:09:43;;;;;;;;;;;0.90;99.90;;;;;;5094153;28;19912;-69
2023/01/26 03:12:09;;;;;;;;;;;0.90;99.90;;;;;;5094168;28;20364;-71
2023/01/26 03:14:34;;;;;;;;;;;0.90;99.90;;;;;;5094264;28;19999;-70
2023/01/26 03:17:00;;;;;;;;;;;0.90;99.90;;;;;;5095169;28;20007;-70
2023/01/26 03:27:42;;;;;;;;;;;0.70;99.90;;;;;;5110693;28;19999;-69
2023/01/26 03:30:08;;;;;;;;;;;0.80;99.90;;;;;;5095807;28;19916;-70
2023/01/26 03:32:34;;;;;;;;;;;0.70;99.90;;;;;;5095835;28;19939;-70
2023/01/26 03:34:59;;;;;;;;;;;0.70;99.90;;;;;;5094119;28;19916;-69
2023/01/26 03:37:25;;;;;;;;;;;0.70;99.90;;;;;;5095289;28;19951;-69
2023/01/26 03:56:18;;;;;;;;;;;0.70;99.90;;;;;;5094819;28;19965;-69
2023/01/26 03:58:44;;;;;;;;;;;0.70;99.90;;;;;;5094581;28;20437;-69
2023/01/26 04:01:17;;;;;;;;;;;0.70;99.90;;;;;;5096967;28;19920;-70
2023/01/26 04:09:11;;;;;;;;;;;0.80;99.90;;;;;;5094682;28;19965;-69
2023/01/26 04:11:37;;;;;;;;;;;0.80;99.90;;;;;;5109590;28;19920;-69
2023/01/26 04:22:14;;;;;;;;;;;0.80;99.90;;;;;;5109709;28;19932;-69
2023/01/26 04:24:40;;;;;;;;;;;0.80;99.90;;;;;;5112938;28;19912;-69
2023/01/26 04:27:06;;;;;;;;;;;0.80;99.90;;;;;;5114906;28;19912;-70
2023/01/26 04:29:31;;;;;;;;;;;0.80;99.90;;;;;;5111208;28;20425;-69
2023/01/26 04:31:57;;;;;;;;;;;0.70;99.90;;;;;;5109014;28;19985;-69
2023/01/26 04:34:22;;;;;;;;;;;0.70;99.90;;;;;;5102041;28;19919;-69
2023/01/26 04:36:48;;;;;;;;;;;0.70;99.90;;;;;;5094330;28;19927;-69
2023/01/26 04:39:14;;;;;;;;;;;0.70;99.90;;;;;;5094551;28;19985;-69
2023/01/26 04:41:39;;;;;;;;;;;0.70;99.90;;;;;;5094465;28;19912;-69
2023/01/26 04:44:05;;;;;;;;;;;0.70;99.90;;;;;;5093328;28;19916;-69
2023/01/26 04:46:32;;;;;;;;;;;0.70;99.90;;;;;;5093770;28;19912;-70
2023/01/26 04:48:57;;;;;;;;;;;0.70;99.90;;;;;;5093135;28;19912;-69
2023/01/26 04:51:23;;;;;;;;;;;0.70;99.90;;;;;;5092804;28;19979;-70
2023/01/26 04:53:49;;;;;;;;;;;0.70;99.90;;;;;;5091582;28;20436;-70
2023/01/26 04:56:24;;;;;;;;;;;0.70;99.90;;;;;;5093610;28;20003;-69
2023/01/26 04:58:51;;;;;;;;;;;0.70;99.90;;;;;;5093893;28;20409;-69
2023/01/26 05:01:17;;;;;;;;;;;0.70;99.90;;;;;;5094240;28;19912;-69
2023/01/26 05:03:43;;;;;;;;;;;0.70;99.90;;;;;;5093899;28;20367;-70
2023/01/26 05:06:08;;;;;;;;;;;0.70;99.90;;;;;;5092663;28;19916;-70
2023/01/26 05:08:35;;;;;;;;;;;0.70;99.90;;;;;;5101475;28;20003;-69
2023/01/26 05:11:00;;;;;;;;;;;0.70;99.90;;;;;;5093884;28;19916;-69
2023/01/26 05:13:26;;;;;;;;;;;0.70;99.90;;;;;;5099674;28;20417;-70
2023/01/26 05:15:51;;;;;;;;;;;0.70;99.90;;;;;;5106694;28;19943;-69
2023/01/26 05:18:17;;;;;;;;;;;0.70;99.90;;;;;;5102774;28;19923;-69
2023/01/26 05:20:43;;;;;;;;;;;0.70;99.90;;;;;;5101547;28;19913;-69
2023/01/26 05:23:08;;;;;;;;;;;0.70;99.90;;;;;;5095378;28;20057;-70
2023/01/26 05:25:34;;;;;;;;;;;0.70;99.90;;;;;;5104922;28;19912;-69
2023/01/26 05:27:59;;;;;;;;;;;0.70;99.90;;;;;;5092431;28;19912;-69
2023/01/26 05:30:25;;;;;;;;;;;0.70;99.90;;;;;;5095399;28;20035;-70
2023/01/26 05:32:51;;;;;;;;;;;0.70;99.90;;;;;;5104391;28;19918;-69
2023/01/26 05:35:16;;;;;;;;;;;0.70;99.90;;;;;;5113086;28;19920;-69
2023/01/26 05:37:42;;;;;;;;;;;0.70;99.90;;;;;;5096226;28;20292;-69
2023/01/26 05:40:11;;;;;;;;;;;0.70;99.90;;;;;;5096240;28;19913;-70
2023/01/26 05:42:37;;;;;;;;;;;0.70;99.90;;;;;;5097589;28;19916;-69
2023/01/26 05:45:03;;;;;;;;;;;0.70;99.90;;;;;;5097589;28;19965;-69
2023/01/26 05:47:29;;;;;;;;;;;0.70;99.90;;;;;;5100327;28;19919;-69
2023/01/26 05:49:54;;;;;;;;;;;0.70;99.90;;;;;;5097261;28;19912;-70
2023/01/26 05:52:20;;;;;;;;;;;0.80;99.90;;;;;;5097979;28;20008;-69
2023/01/26 05:54:46;;;;;;;;;;;0.70;99.90;;;;;;5097456;28;20378;-70
2023/01/26 05:57:12;;;;;;;;;;;0.70;99.90;;;;;;5097283;28;19912;-70
2023/01/26 05:59:38;;;;;;;;;;;0.70;99.90;;;;;;5097152;28;19912;-69
2023/01/26 06:02:04;;;;;;;;;;;0.70;99.90;;;;;;5097092;28;20398;-70
2023/01/26 06:04:29;;;;;;;;;;;0.70;99.90;;;;;;5097277;28;19918;-70
2023/01/26 06:06:56;;;;;;;;;;;1.30;99.90;;;;;;5096402;28;19997;-70
2023/01/26 06:09:21;;;;;;;;;;;0.90;99.90;;;;;;5095512;28;19920;-69
2023/01/26 06:11:47;;;;;;;;;;;0.70;99.90;;;;;;5096605;28;19921;-70
2023/01/26 06:14:13;;;;;;;;;;;0.70;99.90;;;;;;5095585;28;19916;-69
2023/01/26 06:16:38;;;;;;;;;;;0.70;99.90;;;;;;5096422;28;20271;-70
2023/01/26 06:19:04;;;;;;;;;;;0.70;99.90;;;;;;5081517;28;19916;-70
2023/01/26 06:21:30;;;;;;;;;;;0.70;99.90;;;;;;5076371;28;19922;-69
2023/01/26 06:23:55;;;;;;;;;;;0.70;99.90;;;;;;5074748;28;19913;-70
2023/01/26 06:26:23;;;;;;;;;;;0.70;99.90;;;;;;5074732;28;19919;-70
2023/01/26 06:28:49;;;;;;;;;;;0.70;99.90;;;;;;5086636;28;19986;-69
2023/01/26 06:31:14;;;;;;;;;;;0.70;99.90;;;;;;5077329;28;20383;-70
2023/01/26 06:33:40;;;;;;;;;;;0.70;99.90;;;;;;5095125;28;19919;-70
2023/01/26 06:36:08;;;;;;;;;;;0.70;99.90;;;;;;5095801;28;19913;-70
2023/01/26 06:38:34;;;;;;;;;;;0.70;99.90;;;;;;5085424;28;19919;-70
2023/01/26 06:41:01;;;;;;;;;;;0.70;99.90;;;;;;5076303;28;20003;-70
2023/01/26 06:43:28;;;;;;;;;;;0.70;99.90;;;;;;5075729;28;20399;-70
2023/01/26 06:45:57;;;;;;;;;;;0.60;99.90;;;;;;5076223;28;19916;-70
2023/01/26 06:48:26;;;;;;;;;;;0.70;99.90;;;;;;5083945;28;19957;-69
2023/01/26 06:50:55;;;;;;;;;;;0.60;99.90;;;;;;5075628;28;19978;-67
2023/01/26 06:53:25;;;;;;;;;;;0.70;99.90;;;;;;5080372;28;19965;-68
2023/01/26 06:55:51;;;;;;;;;;;0.70;99.90;;;;;;5096345;28;19912;-69
2023/01/26 06:58:16;;;;;;;;;;;0.60;99.90;;;;;;5089200;28;20422;-69
2023/01/26 07:00:42;;;;;;;;;;;0.70;99.90;;;;;;5057753;28;19912;-70
2023/01/26 07:03:08;;;;;;;;;;;0.80;99.90;;;;;;5075461;28;19999;-69
2023/01/26 07:05:34;;;;;;;;;;;0.60;99.90;;;;;;5075891;28;19920;-69
2023/01/26 07:08:01;;;;;;;;;;;0.70;99.90;;;;;;5062269;28;19912;-69
2023/01/26 07:10:26;;;;;;;;;;;0.70;99.90;;;;;;5096074;28;19959;-70
2023/01/26 07:12:52;;;;;;;;;;;0.60;99.90;;;;;;5077943;28;19956;-70
2023/01/26 07:15:17;;;;;;;;;;;0.60;99.90;;;;;;5078078;28;20264;-68
2023/01/26 07:17:43;;;;;;;;;;;0.60;99.90;;;;;;5092585;28;19969;-70
2023/01/26 07:20:09;;;;;;;;;;;0.60;99.90;;;;;;5074316;28;19935;-69
2023/01/26 07:22:35;;;;;;;;;;;0.60;99.90;;;;;;5069208;28;19919;-69
2023/01/26 07:25:00;;;;;;;;;;;0.60;99.90;;;;;;5060255;28;20241;-70
2023/01/26 07:27:26;;;;;;;;;;;0.60;99.90;;;;;;5054181;28;19917;-69
2023/01/26 07:29:51;;;;;;;;;;;0.60;99.90;;;;;;5094326;28;19921;-69
2023/01/26 07:32:17;;;;;;;;;;;0.60;99.90;;;;;;5095610;28;19977;-70
2023/01/26 07:34:42;;;;;;;;;;;0.70;99.90;;;;;;5095470;28;19912;-70
2023/01/26 07:37:08;;;;;;;;;;;0.70;99.90;;;;;;5072412;28;20291;-71
2023/01/26 07:39:34;;;;;;;;;;;0.70;99.90;;;;;;5088406;28;19916;-70
2023/01/26 07:41:59;;;;;;;;;;;0.70;99.90;;;;;;5093539;28;19941;-70
2023/01/26 07:44:25;;;;;;;;;;;0.70;99.90;;;;;;5075457;28;19912;-70
2023/01/26 07:46:52;;;;;;;;;;;0.70;99.90;;;;;;5075430;28;19938;-70
2023/01/26 07:49:18;;;;;;;;;;;0.70;99.90;;;;;;5078685;28;20494;-70
2023/01/26 07:51:44;;;;;;;;;;;0.70;99.90;;;;;;5056299;28;20011;-71
2023/01/26 07:54:11;;;;;;;;;;;0.80;99.90;;;;;;5074959;28;20007;-70
2023/01/26 07:56:37;;;;;;;;;;;0.80;99.90;;;;;;5074792;28;20348;-69
2023/01/26 07:59:03;;;;;;;;;;;0.70;99.90;;;;;;5087333;28;19951;-70
2023/01/26 08:01:29;;;;;;;;;;;0.70;99.90;;;;;;5095351;28;19993;-69
2023/01/26 08:03:54;;;;;;;;;;;0.70;99.90;;;;;;5076799;28;19942;-69
2023/01/26 08:06:20;;;;;;;;;;;0.70;99.90;;;;;;5095257;28;19958;-69
2023/01/26 08:08:50;;;;;;;;;;;0.80;99.90;;;;;;5085013;28;20245;-68
2023/01/26 08:11:17;;;;;;;;;;;0.80;99.90;;;;;;5058718;28;19925;-69
2023/01/26 08:13:42;;;;;;;;;;;0.80;99.90;;;;;;5085578;28;19912;-69
2023/01/26 08:16:12;;;;;;;;;;;0.90;99.90;;;;;;5056438;28;19966;-69
2023/01/26 08:18:41;;;;;;;;;;;0.80;99.90;;;;;;5084668;28;19923;-69
2023/01/26 08:21:07;;;;;;;;;;;0.80;99.90;;;;;;5093383;28;20423;-69
2023/01/26 08:23:33;;;;;;;;;;;0.80;99.90;;;;;;5089808;28;19912;-68
2023/01/26 08:26:06;;;;;;;;;;;0.80;99.90;;;;;;5072490;28;20049;-69
2023/01/26 08:28:32;;;;;;;;;;;0.80;99.90;;;;;;5085551;28;20359;-70
2023/01/26 08:31:12;;;;;;;;;;;0.80;99.90;;;;;;5094679;28;19920;-70
2023/01/26 08:33:40;;;;;;;;;;;0.80;99.90;;;;;;5093603;28;19916;-69
2023/01/26 08:36:08;;;;;;;;;;;0.80;99.90;;;;;;5094484;28;19912;-67
2023/01/26 08:38:33;;;;;;;;;;;0.80;99.90;;;;;;5094475;28;19919;-69
2023/01/26 08:40:59;;;;;;;;;;;0.80;99.90;;;;;;5094390;28;19912;-69
2023/01/26 08:43:25;;;;;;;;;;;0.90;99.90;;;;;;5093295;28;19912;-69
2023/01/26 08:45:51;;;;;;;;;;;0.80;99.90;;;;;;5094403;28;20283;-69
2023/01/26 08:48:17;;;;;;;;;;;0.80;99.90;;;;;;5093750;28;19916;-69
2023/01/26 08:50:42;;;;;;;;;;;0.80;99.90;;;;;;5094260;28;19920;-69
2023/01/26 08:53:08;;;;;;;;;;;0.90;99.90;;;;;;5094567;28;19916;-70
2023/01/26 08:55:34;;;;;;;;;;;0.80;99.90;;;;;;5093404;28;19918;-70
2023/01/26 08:58:00;;;;;;;;;;;0.80;99.90;;;;;;5094512;28;19916;-70
2023/01/26 09:00:26;;;;;;;;;;;0.80;99.90;;;;;;5094414;28;20336;-69
2023/01/26 09:03:00;;;;;;;;;;;0.80;99.90;;;;;;5093246;28;20006;-67
2023/01/26 09:05:27;;;;;;;;;;;0.80;99.90;;;;;;5094289;28;19951;-68
2023/01/26 09:07:52;;;;;;;;;;;0.80;99.90;;;;;;5095232;28;20295;-69
2023/01/26 09:10:18;;;;;;;;;;;0.80;99.90;;;;;;5097292;28;19916;-69
2023/01/26 09:12:43;;;;;;;;;;;0.80;99.90;;;;;;5097035;28;20268;-70
2023/01/26 09:15:09;;;;;;;;;;;0.80;99.90;;;;;;5097082;28;20006;-70
2023/01/26 09:17:36;;;;;;;;;;;0.90;99.90;;;;;;5097984;28;19927;-69
2023/01/26 09:20:02;;;;;;;;;;;0.80;99.90;;;;;;5097774;28;20420;-68
2023/01/26 09:22:28;;;;;;;;;;;0.90;99.90;;;;;;5098374;28;19912;-69
2023/01/26 09:24:54;;;;;;;;;;;0.90;99.90;;;;;;5098102;28;19919;-69
2023/01/26 09:27:19;;;;;;;;;;;0.90;99.90;;;;;;5098423;28;19912;-68
2023/01/26 09:29:45;;;;;;;;;;;0.90;99.90;;;;;;5098077;28;20335;-69
2023/01/26 09:32:10;;;;;;;;;;;0.90;99.90;;;;;;5097836;28;19920;-69
2023/01/26 09:34:36;;;;;;;;;;;0.90;99.90;;;;;;5097548;28;19912;-69
2023/01/26 09:37:02;;;;;;;;;;;0.90;99.90;;;;;;5097975;28;20381;-68
2023/01/26 09:39:27;;;;;;;;;;;0.90;99.90;;;;;;5096433;28;19918;-68
2023/01/26 09:42:11;;;;;;;;;;;0.90;99.90;;;;;;5097808;28;19918;-69
2023/01/26 09:44:41;;;;;;;;;;;0.90;99.90;;;;;;5097644;28;19919;-68
2023/01/26 09:47:13;;;;;;;;;;;0.90;99.90;;;;;;5097683;28;19912;-69
2023/01/26 09:49:47;;;;;;;;;;;0.90;99.90;;;;;;5097607;28;20264;-69
2023/01/26 09:52:15;;;;;;;;;;;0.90;99.90;;;;;;5091225;28;19924;-69
2023/01/26 09:54:47;;;;;;;;;;;0.90;99.90;;;;;;5079341;28;19912;-68
2023/01/26 09:57:14;;;;;;;;;;;0.90;99.90;;;;;;5077200;28;19958;-69
2023/01/26 09:59:47;;;;;;;;;;;0.90;99.90;;;;;;5092831;28;20283;-68
2023/01/26 10:02:12;;;;;;;;;;;1.90;99.90;;;;;;5096009;28;19915;-69
2023/01/26 10:04:41;;;;;;;;;;;1.70;99.90;;;;;;5097225;28;19961;-69
2023/01/26 10:07:11;;;;;;;;;;;1.20;99.90;;;;;;5097385;28;19912;-68
2023/01/26 10:09:37;;;;;;;;;;;1.00;99.90;;;;;;5095867;28;19912;-69
2023/01/26 10:12:10;;;;;;;;;;;1.00;99.90;;;;;;5096890;28;19988;-69
2023/01/26 10:14:41;;;;;;;;;;;1.00;99.90;;;;;;5097001;28;19912;-68
2023/01/26 10:17:13;;;;;;;;;;;1.00;99.90;;;;;;5097030;28;19912;-68
2023/01/26 10:19:41;;;;;;;;;;;1.00;99.90;;;;;;5080323;28;19920;-69
2023/01/26 10:22:21;;;;;;;;;;;1.00;99.90;;;;;;5076701;28;19912;-69
2023/01/26 10:24:47;;;;;;;;;;;0.90;99.90;;;;;;5076072;28;19913;-69
2023/01/26 10:27:13;;;;;;;;;;;0.90;99.90;;;;;;5074696;28;19919;-69
2023/01/26 10:29:39;;;;;;;;;;;0.90;99.90;;;;;;5090334;28;20267;-68
2023/01/26 10:32:04;;;;;;;;;;;0.90;99.90;;;;;;5078373;28;20371;-69
2023/01/26 10:34:31;;;;;;;;;;;1.00;99.90;;;;;;5077289;28;19912;-68
2023/01/26 10:37:10;;;;;;;;;;;0.90;99.90;;;;;;5076834;28;19939;-68
2023/01/26 10:39:54;;;;;;;;;;;0.90;99.90;;;;;;5062973;28;19919;-68
2023/01/26 10:42:20;;;;;;;;;;;0.90;99.90;;;;;;5075966;28;19966;-68
2023/01/26 10:44:49;;;;;;;;;;;0.80;99.90;;;;;;5075938;28;19916;-70
2023/01/26 10:47:16;;;;;;;;;;;0.60;99.90;;;;;;5064077;28;19913;-68
2023/01/26 10:49:41;;;;;;;;;;;0.70;99.90;;;;;;5087710;28;19912;-69
2023/01/26 10:52:14;;;;;;;;;;;0.70;99.90;;;;;;5058208;28;19999;-68
2023/01/26 10:54:42;;;;;;;;;;;0.70;99.90;;;;;;5069478;28;19958;-69
2023/01/26 10:57:20;;;;;;;;;;;0.80;99.90;;;;;;5072658;28;19952;-68
2023/01/26 10:59:54;;;;;;;;;;;0.80;99.90;;;;;;5097437;28;19923;-68
2023/01/26 11:02:20;;;;;;;;;;;0.70;99.90;;;;;;5072489;28;20463;-68
2023/01/26 11:05:04;;;;;;;;;;;0.70;99.90;;;;;;5071995;28;19998;-68
2023/01/26 11:07:34;;;;;;;;;;;0.80;99.90;;;;;;5054155;28;19944;-68
2023/01/26 11:10:18;;;;;;;;;;;0.80;99.90;;;;;;5053945;28;19912;-68
2023/01/26 11:12:44;;;;;;;;;;;0.80;99.90;;;;;;5033990;28;19916;-68
2023/01/26 11:15:18;;;;;;;;;;;0.80;99.90;;;;;;5068206;28;19995;-68
2023/01/26 11:17:50;;;;;;;;;;;0.80;99.90;;;;;;5072836;28;19916;-68
2023/01/26 11:20:35;;;;;;;;;;;0.80;99.90;;;;;;5092639;28;20447;-68
2023/01/26 11:23:16;;;;;;;;;;;0.80;99.90;;;;;;5047386;28;19913;-68
2023/01/26 11:26:00;;;;;;;;;;;0.80;99.90;;;;;;5033019;28;19978;-69
2023/01/26 11:28:32;;;;;;;;;;;0.70;99.90;;;;;;5064718;28;20286;-69
2023/01/26 11:31:17;;;;;;;;;;;0.70;99.90;;;;;;5094018;28;20275;-68
2023/01/26 11:33:48;;;;;;;;;;;0.80;99.90;;;;;;5073727;28;19915;-68
2023/01/26 11:36:14;;;;;;;;;;;0.80;99.90;;;;;;5093366;28;19998;-67
2023/01/26 11:38:41;;;;;;;;;;;0.80;99.90;;;;;;5074950;28;20005;-68
2023/01/26 11:41:17;;;;;;;;;;;0.70;99.90;;;;;;5054005;28;19948;-67
2023/01/26 11:44:02;;;;;;;;;;;0.60;99.90;;;;;;5070951;28;19916;-67
2023/01/26 11:46:33;;;;;;;;;;;0.60;99.90;;;;;;5071902;28;19912;-68
2023/01/26 11:48:59;;;;;;;;;;;0.70;99.90;;;;;;5033074;28;19917;-68
2023/01/26 11:51:30;;;;;;;;;;;0.60;99.90;;;;;;5033072;28;20353;-68
2023/01/26 11:54:05;;;;;;;;;;;0.60;99.90;;;;;;5051138;28;19913;-68
2023/01/26 11:56:31;;;;;;;;;;;0.60;99.90;;;;;;5067242;28;19956;-68
2023/01/26 11:59:01;;;;;;;;;;;0.50;99.90;;;;;;5073414;28;19944;-68
2023/01/26 12:01:30;;;;;;;;;;;0.50;99.90;;;;;;5092642;28;19978;-68
2023/01/26 12:03:55;;;;;;;;;;;0.50;99.90;;;;;;5093084;28;20355;-68
2023/01/26 12:06:35;;;;;;;;;;;0.50;99.90;;;;;;5094369;28;19956;-68
2023/01/26 12:09:19;;;;;;;;;;;0.50;99.90;;;;;;5034704;28;19999;-68
2023/01/26 12:11:50;;;;;;;;;;;0.50;99.90;;;;;;5034354;28;19955;-68
2023/01/26 12:14:22;;;;;;;;;;;0.50;99.90;;;;;;5052330;28;20050;-68
2023/01/26 12:16:48;;;;;;;;;;;0.50;99.90;;;;;;5055845;28;19913;-68
2023/01/26 12:19:26;;;;;;;;;;;0.50;99.90;;;;;;5092509;28;19946;-68
2023/01/26 12:21:53;;;;;;;;;;;0.50;99.90;;;;;;5092826;28;19920;-68
2023/01/26 12:24:23;;;;;;;;;;;0.50;99.90;;;;;;5092914;28;20394;-68
2023/01/26 12:26:51;;;;;;;;;;;0.50;99.90;;;;;;5087775;28;19955;-68
2023/01/26 12:29:46;;;;;;;;;;;0.50;99.90;;;;;;5063130;28;19990;-68
2023/01/26 12:32:12;;;;;;;;;;;0.50;99.90;;;;;;4997176;28;19933;-68
2023/01/26 12:34:38;;;;;;;;;;;0.50;99.90;;;;;;5051503;28;19942;-68
2023/01/26 12:37:19;;;;;;;;;;;0.50;99.90;;;;;;5058842;28;19916;-68
2023/01/26 12:40:06;;;;;;;;;;;0.50;99.90;;;;;;5073975;28;20248;-68
2023/01/26 12:42:42;;;;;;;;;;;0.60;99.90;;;;;;5060204;28;19913;-68
2023/01/26 12:45:19;;;;;;;;;;;0.60;99.90;;;;;;5092529;28;19920;-68
2023/01/26 12:47:50;;;;;;;;;;;0.50;99.90;;;;;;5064857;28;19913;-68
2023/01/26 12:50:23;;;;;;;;;;;0.50;99.90;;;;;;5071800;28;20712;-68
2023/01/26 12:52:56;;;;;;;;;;;0.50;99.90;;;;;;5052561;28;20353;-68
2023/01/26 12:55:22;;;;;;;;;;;0.60;99.90;;;;;;5052069;28;20378;-68
2023/01/26 12:57:53;;;;;;;;;;;0.50;99.90;;;;;;5052517;28;19912;-68
2023/01/26 13:00:21;;;;;;;;;;;0.50;99.90;;;;;;5088951;28;19916;-68
2023/01/26 13:02:49;;;;;;;;;;;0.50;99.90;;;;;;5073736;28;20346;-67
2023/01/26 13:05:28;;;;;;;;;;;0.60;99.90;;;;;;5092277;28;19912;-67
2023/01/26 13:07:54;;;;;;;;;;;0.50;99.90;;;;;;5063223;28;19913;-67
2023/01/26 13:10:24;;;;;;;;;;;0.60;99.90;;;;;;5070827;28;20287;-67
2023/01/26 13:12:52;;;;;;;;;;;0.60;99.90;;;;;;5054144;28;19958;-67
2023/01/26 13:15:20;;;;;;;;;;;0.60;99.90;;;;;;5053754;28;19919;-67
2023/01/26 13:17:55;;;;;;;;;;;0.60;99.90;;;;;;5079687;28;20011;-67
2023/01/26 13:20:22;;;;;;;;;;;0.60;99.90;;;;;;5073885;28;20315;-67
2023/01/26 13:22:47;;;;;;;;;;;0.60;99.90;;;;;;5074068;28;19912;-67
2023/01/26 13:25:17;;;;;;;;;;;0.60;99.90;;;;;;5092305;28;19920;-67
2023/01/26 13:27:45;;;;;;;;;;;0.50;99.90;;;;;;5081932;28;19920;-67
2023/01/26 13:30:26;;;;;;;;;;;0.50;99.90;;;;;;5069895;28;19966;-67
2023/01/26 13:32:51;;;;;;;;;;;0.60;99.90;;;;;;5070298;28;20020;-67
2023/01/26 13:35:24;;;;;;;;;;;0.60;99.90;;;;;;5070496;28;20374;-67
2023/01/26 13:37:59;;;;;;;;;;;0.60;99.90;;;;;;5080541;28;19916;-67
2023/01/26 13:40:27;;;;;;;;;;;0.60;99.90;;;;;;5089853;28;19912;-67
2023/01/26 13:42:56;;;;;;;;;;;0.60;99.90;;;;;;5091677;28;20348;-67
2023/01/26 13:45:28;;;;;;;;;;;0.70;99.90;;;;;;5092693;28;19958;-67
2023/01/26 13:47:55;;;;;;;;;;;0.60;99.90;;;;;;5083560;28;20370;-67
2023/01/26 13:50:22;;;;;;;;;;;0.70;99.90;;;;;;5072146;28;19912;-67
2023/01/26 13:52:47;;;;;;;;;;;0.70;99.90;;;;;;5054393;28;19912;-67
2023/01/26 13:55:21;;;;;;;;;;;0.70;99.90;;;;;;5075248;28;19972;-67
2023/01/26 13:57:48;;;;;;;;;;;0.70;99.90;;;;;;5083598;28;20385;-67
2023/01/26 14:00:14;;;;;;;;;;;0.70;99.90;;;;;;5096454;28;20359;-67
2023/01/26 14:02:40;;;;;;;;;;;0.70;99.90;;;;;;5097206;28;19919;-67
2023/01/26 14:05:05;;;;;;;;;;;0.70;99.90;;;;;;5097106;28;19916;-67
2023/01/26 14:07:39;;;;;;;;;;;0.70;99.90;;;;;;5091323;28;20598;-67
2023/01/26 14:10:05;;;;;;;;;;;0.60;99.90;;;;;;5076932;28;20386;-67
2023/01/26 14:12:41;;;;;;;;;;;0.60;99.90;;;;;;5058971;28;20265;-67
2023/01/26 14:15:18;;;;;;;;;;;0.60;99.90;;;;;;5075854;28;19919;-67
2023/01/26 14:17:51;;;;;;;;;;;0.50;99.90;;;;;;5083006;28;20267;-67
2023/01/26 14:20:24;;;;;;;;;;;0.50;99.90;;;;;;5095638;28;19965;-67
2023/01/26 14:23:17;;;;;;;;;;;0.40;99.90;;;;;;5095303;28;19952;-67
2023/01/26 14:25:55;;;;;;;;;;;0.50;99.90;;;;;;5092966;28;19966;-67
2023/01/26 14:28:22;;;;;;;;;;;0.50;99.90;;;;;;5095424;28;19951;-67
2023/01/26 14:30:47;;;;;;;;;;;;;;;;;;5096375;28;20356;-67
2023/01/26 14:33:14;;;;;;;;;;;1.80;99.90;;;;;;5094998;28;19916;-68
2023/01/26 14:35:40;;;;;;;;;;;2.10;99.90;;;;;;5089895;28;19919;-67
2023/01/26 14:38:09;;;;;;;;;;;0.90;99.90;;;;;;5090265;28;19912;-67
2023/01/26 14:40:34;;;;;;;;;;;0.60;99.90;;;;;;5096531;28;19916;-67
2023/01/26 14:43:00;;;;;;;;;;;0.50;99.90;;;;;;5096682;28;19919;-67
2023/01/26 14:45:30;;;;;;;;;;;0.50;99.90;;;;;;5095806;28;20356;-67
2023/01/26 14:47:59;;;;;;;;;;;0.40;99.90;;;;;;5094607;28;19912;-67
2023/01/26 14:50:29;;;;;;;;;;;0.40;99.90;;;;;;5095807;28;20003;-67
2023/01/26 14:52:55;;;;;;;;;;;0.40;99.90;;;;;;5094584;28;19912;-67
2023/01/26 14:55:24;;;;;;;;;;;0.30;99.90;;;;;;5081298;28;19943;-67
2023/01/26 14:57:51;;;;;;;;;;;0.30;99.90;;;;;;5082376;28;20276;-67
2023/01/26 15:00:19;;;;;;;;;;;0.30;99.90;;;;;;5095280;28;20364;-67
2023/01/26 15:02:47;;;;;;;;;;;0.30;99.90;;;;;;5093659;28;19912;-66
2023/01/26 15:05:17;;;;;;;;;;;0.30;99.90;;;;;;5092275;28;19999;-67
2023/01/26 15:07:44;;;;;;;;;;;0.30;99.90;;;;;;5096052;28;19947;-67
2023/01/26 15:10:28;;;;;;;;;;;0.20;99.90;;;;;;5095231;28;19927;-67
2023/01/26 15:12:56;;;;;;;;;;;0.20;99.90;;;;;;5096168;28;20267;-67
2023/01/26 15:15:25;;;;;;;;;;;0.20;99.90;;;;;;5094798;28;19912;-67
2023/01/26 15:18:19;;;;;;;;;;;0.20;99.90;;;;;;5088381;28;19924;-67
2023/01/26 15:21:00;;;;;;;;;;;0.20;99.90;;;;;;5062610;28;19921;-67
2023/01/26 15:23:28;;;;;;;;;;;0.10;99.90;;;;;;5075775;28;19916;-66